sensor_id;sensor_type;location;lat;lon;timestamp;P1;durP1;ratioP1;P2;durP2;ratioP2
20207;SDS011;10263;48.716;8.760;2023-08-01T00:00:28;5.07;;;3.00;;
20207;SDS011;10263;48.716;8.760;2023-08-01T00:02:56;3.30;;;3.00;;
20207;SDS011;10263;48.716;8.760;2023-08-01T00:05:23;4.75;;;2.80;;
20207;SDS011;10263;48.716;8.760;2023-08-01T00:07:51;6.15;;;3.78;;
20207;SDS011;10263;48.716;8.760;2023-08-01T00:10:18;3.30;;;2.78;;
20207;SDS011;10263;48.716;8.760;2023-08-01T00:12:44;4.97;;;3.10;;
20207;SDS011;10263;48.716;8.760;2023-08-01T00:15:11;4.63;;;2.72;;
20207;SDS011;10263;48.716;8.760;2023-08-01T00:17:38;3.78;;;3.28;;
20207;SDS011;10263;48.716;8.760;2023-08-01T00:20:05;4.85;;;2.75;;
20207;SDS011;10263;48.716;8.760;2023-08-01T00:22:33;6.55;;;2.92;;
20207;SDS011;10263;48.716;8.760;2023-08-01T00:25:01;5.03;;;2.70;;
20207;SDS011;10263;48.716;8.760;2023-08-01T00:27:28;3.88;;;2.83;;
20207;SDS011;10263;48.716;8.760;2023-08-01T00:29:57;3.45;;;2.90;;
20207;SDS011;10263;48.716;8.760;2023-08-01T00:32:24;2.70;;;2.40;;
20207;SDS011;10263;48.716;8.760;2023-08-01T00:34:50;5.32;;;2.80;;
20207;SDS011;10263;48.716;8.760;2023-08-01T00:37:17;4.65;;;2.97;;
20207;SDS011;10263;48.716;8.760;2023-08-01T00:39:44;4.43;;;2.80;;
20207;SDS011;10263;48.716;8.760;2023-08-01T00:42:12;6.00;;;3.10;;
20207;SDS011;10263;48.716;8.760;2023-08-01T00:44:39;3.97;;;3.03;;
20207;SDS011;10263;48.716;8.760;2023-08-01T00:47:06;4.88;;;2.63;;
20207;SDS011;10263;48.716;8.760;2023-08-01T00:49:33;5.25;;;2.78;;
20207;SDS011;10263;48.716;8.760;2023-08-01T00:52:00;4.15;;;3.22;;
20207;SDS011;10263;48.716;8.760;2023-08-01T00:54:26;3.55;;;2.97;;
20207;SDS011;10263;48.716;8.760;2023-08-01T00:56:55;4.47;;;2.97;;
20207;SDS011;10263;48.716;8.760;2023-08-01T00:59:23;4.97;;;3.15;;
20207;SDS011;10263;48.716;8.760;2023-08-01T01:01:50;3.33;;;2.83;;
20207;SDS011;10263;48.716;8.760;2023-08-01T01:04:17;3.83;;;3.00;;
20207;SDS011;10263;48.716;8.760;2023-08-01T01:06:45;3.33;;;3.03;;
20207;SDS011;10263;48.716;8.760;2023-08-01T01:09:17;3.67;;;2.67;;
20207;SDS011;10263;48.716;8.760;2023-08-01T01:11:44;3.92;;;3.20;;
20207;SDS011;10263;48.716;8.760;2023-08-01T01:14:12;3.65;;;3.15;;
20207;SDS011;10263;48.716;8.760;2023-08-01T01:16:40;6.53;;;3.25;;
20207;SDS011;10263;48.716;8.760;2023-08-01T01:19:07;4.65;;;3.40;;
20207;SDS011;10263;48.716;8.760;2023-08-01T01:21:37;4.03;;;2.83;;
20207;SDS011;10263;48.716;8.760;2023-08-01T01:24:05;3.70;;;2.95;;
20207;SDS011;10263;48.716;8.760;2023-08-01T01:26:35;4.07;;;2.85;;
20207;SDS011;10263;48.716;8.760;2023-08-01T01:29:04;3.92;;;3.17;;
20207;SDS011;10263;48.716;8.760;2023-08-01T01:31:33;3.85;;;3.20;;
20207;SDS011;10263;48.716;8.760;2023-08-01T01:34:00;5.35;;;3.13;;
20207;SDS011;10263;48.716;8.760;2023-08-01T01:36:28;7.07;;;3.40;;
20207;SDS011;10263;48.716;8.760;2023-08-01T01:38:56;5.80;;;3.58;;
20207;SDS011;10263;48.716;8.760;2023-08-01T01:41:23;5.07;;;3.33;;
20207;SDS011;10263;48.716;8.760;2023-08-01T01:43:50;3.60;;;3.25;;
20207;SDS011;10263;48.716;8.760;2023-08-01T01:46:17;4.57;;;3.50;;
20207;SDS011;10263;48.716;8.760;2023-08-01T01:48:44;5.28;;;3.33;;
20207;SDS011;10263;48.716;8.760;2023-08-01T01:51:10;5.93;;;3.38;;
20207;SDS011;10263;48.716;8.760;2023-08-01T01:53:37;4.63;;;3.20;;
20207;SDS011;10263;48.716;8.760;2023-08-01T01:56:05;3.70;;;3.13;;
20207;SDS011;10263;48.716;8.760;2023-08-01T01:58:32;4.50;;;3.15;;
20207;SDS011;10263;48.716;8.760;2023-08-01T02:00:59;3.63;;;3.03;;
20207;SDS011;10263;48.716;8.760;2023-08-01T02:03:26;4.45;;;3.05;;
20207;SDS011;10263;48.716;8.760;2023-08-01T02:05:53;5.20;;;3.95;;
20207;SDS011;10263;48.716;8.760;2023-08-01T02:08:20;4.22;;;3.05;;
20207;SDS011;10263;48.716;8.760;2023-08-01T02:10:47;3.97;;;3.15;;
20207;SDS011;10263;48.716;8.760;2023-08-01T02:13:16;4.38;;;3.40;;
20207;SDS011;10263;48.716;8.760;2023-08-01T02:15:43;3.78;;;3.35;;
20207;SDS011;10263;48.716;8.760;2023-08-01T02:18:10;6.28;;;3.55;;
20207;SDS011;10263;48.716;8.760;2023-08-01T02:20:37;3.42;;;3.13;;
20207;SDS011;10263;48.716;8.760;2023-08-01T02:23:04;5.45;;;3.58;;
20207;SDS011;10263;48.716;8.760;2023-08-01T02:25:30;4.88;;;3.42;;
20207;SDS011;10263;48.716;8.760;2023-08-01T02:27:57;5.35;;;3.33;;
20207;SDS011;10263;48.716;8.760;2023-08-01T02:30:25;4.18;;;3.20;;
20207;SDS011;10263;48.716;8.760;2023-08-01T02:32:54;3.13;;;2.83;;
20207;SDS011;10263;48.716;8.760;2023-08-01T02:35:22;5.00;;;3.20;;
20207;SDS011;10263;48.716;8.760;2023-08-01T02:37:50;5.20;;;3.63;;
20207;SDS011;10263;48.716;8.760;2023-08-01T02:40:17;4.25;;;3.10;;
20207;SDS011;10263;48.716;8.760;2023-08-01T02:42:43;3.47;;;3.17;;
20207;SDS011;10263;48.716;8.760;2023-08-01T02:45:10;4.25;;;3.20;;
20207;SDS011;10263;48.716;8.760;2023-08-01T02:47:38;4.32;;;3.10;;
20207;SDS011;10263;48.716;8.760;2023-08-01T02:50:05;3.95;;;3.55;;
20207;SDS011;10263;48.716;8.760;2023-08-01T02:52:33;5.53;;;3.15;;
20207;SDS011;10263;48.716;8.760;2023-08-01T02:55:00;5.63;;;3.20;;
20207;SDS011;10263;48.716;8.760;2023-08-01T02:57:27;4.07;;;3.13;;
20207;SDS011;10263;48.716;8.760;2023-08-01T02:59:53;4.32;;;3.15;;
20207;SDS011;10263;48.716;8.760;2023-08-01T03:02:20;4.25;;;3.28;;
20207;SDS011;10263;48.716;8.760;2023-08-01T03:04:48;5.15;;;3.40;;
20207;SDS011;10263;48.716;8.760;2023-08-01T03:07:15;4.03;;;3.20;;
20207;SDS011;10263;48.716;8.760;2023-08-01T03:09:42;5.07;;;3.47;;
20207;SDS011;10263;48.716;8.760;2023-08-01T03:12:08;6.55;;;3.35;;
20207;SDS011;10263;48.716;8.760;2023-08-01T03:14:35;3.72;;;3.20;;
20207;SDS011;10263;48.716;8.760;2023-08-01T03:17:02;4.55;;;3.55;;
20207;SDS011;10263;48.716;8.760;2023-08-01T03:19:29;4.43;;;3.55;;
20207;SDS011;10263;48.716;8.760;2023-08-01T03:21:58;4.78;;;3.08;;
20207;SDS011;10263;48.716;8.760;2023-08-01T03:24:26;6.03;;;3.17;;
20207;SDS011;10263;48.716;8.760;2023-08-01T03:26:52;4.88;;;2.97;;
20207;SDS011;10263;48.716;8.760;2023-08-01T03:29:19;5.32;;;3.35;;
20207;SDS011;10263;48.716;8.760;2023-08-01T03:31:46;5.65;;;3.35;;
20207;SDS011;10263;48.716;8.760;2023-08-01T03:34:13;5.65;;;3.08;;
20207;SDS011;10263;48.716;8.760;2023-08-01T03:36:40;3.58;;;2.80;;
20207;SDS011;10263;48.716;8.760;2023-08-01T03:39:08;4.88;;;3.17;;
20207;SDS011;10263;48.716;8.760;2023-08-01T03:41:36;3.75;;;2.90;;
20207;SDS011;10263;48.716;8.760;2023-08-01T03:44:03;2.97;;;2.67;;
20207;SDS011;10263;48.716;8.760;2023-08-01T03:46:30;3.78;;;2.75;;
20207;SDS011;10263;48.716;8.760;2023-08-01T03:48:57;4.40;;;2.35;;
20207;SDS011;10263;48.716;8.760;2023-08-01T03:51:24;2.88;;;2.58;;
20207;SDS011;10263;48.716;8.760;2023-08-01T03:53:51;3.65;;;2.60;;
20207;SDS011;10263;48.716;8.760;2023-08-01T03:56:19;4.03;;;3.25;;
20207;SDS011;10263;48.716;8.760;2023-08-01T03:58:46;5.00;;;3.03;;
20207;SDS011;10263;48.716;8.760;2023-08-01T04:01:12;2.97;;;2.45;;
20207;SDS011;10263;48.716;8.760;2023-08-01T04:03:39;4.63;;;2.70;;
20207;SDS011;10263;48.716;8.760;2023-08-01T04:06:07;3.63;;;2.40;;
20207;SDS011;10263;48.716;8.760;2023-08-01T04:08:33;4.20;;;2.90;;
20207;SDS011;10263;48.716;8.760;2023-08-01T04:11:00;3.05;;;2.72;;
20207;SDS011;10263;48.716;8.760;2023-08-01T04:13:28;4.75;;;2.70;;
20207;SDS011;10263;48.716;8.760;2023-08-01T04:15:55;4.28;;;2.88;;
20207;SDS011;10263;48.716;8.760;2023-08-01T04:18:22;5.90;;;2.90;;
20207;SDS011;10263;48.716;8.760;2023-08-01T04:20:48;3.25;;;2.65;;
20207;SDS011;10263;48.716;8.760;2023-08-01T04:23:15;4.43;;;2.83;;
20207;SDS011;10263;48.716;8.760;2023-08-01T04:25:42;2.95;;;2.67;;
20207;SDS011;10263;48.716;8.760;2023-08-01T04:28:09;3.40;;;2.83;;
20207;SDS011;10263;48.716;8.760;2023-08-01T04:30:37;5.50;;;2.60;;
20207;SDS011;10263;48.716;8.760;2023-08-01T04:33:04;5.15;;;2.70;;
20207;SDS011;10263;48.716;8.760;2023-08-01T04:35:31;3.58;;;2.78;;
20207;SDS011;10263;48.716;8.760;2023-08-01T04:37:57;3.85;;;2.67;;
20207;SDS011;10263;48.716;8.760;2023-08-01T04:40:24;3.58;;;2.85;;
20207;SDS011;10263;48.716;8.760;2023-08-01T04:42:51;3.42;;;2.45;;
20207;SDS011;10263;48.716;8.760;2023-08-01T04:45:18;4.13;;;2.42;;
20207;SDS011;10263;48.716;8.760;2023-08-01T04:47:46;3.08;;;2.58;;
20207;SDS011;10263;48.716;8.760;2023-08-01T04:50:12;3.90;;;2.75;;
20207;SDS011;10263;48.716;8.760;2023-08-01T04:52:39;4.40;;;2.80;;
20207;SDS011;10263;48.716;8.760;2023-08-01T04:55:06;4.28;;;2.97;;
20207;SDS011;10263;48.716;8.760;2023-08-01T04:57:33;4.13;;;2.70;;
20207;SDS011;10263;48.716;8.760;2023-08-01T05:00:00;5.50;;;2.58;;
20207;SDS011;10263;48.716;8.760;2023-08-01T05:02:28;4.75;;;3.08;;
20207;SDS011;10263;48.716;8.760;2023-08-01T05:04:56;5.57;;;2.90;;
20207;SDS011;10263;48.716;8.760;2023-08-01T05:07:22;3.10;;;2.80;;
20207;SDS011;10263;48.716;8.760;2023-08-01T05:09:49;3.08;;;2.75;;
20207;SDS011;10263;48.716;8.760;2023-08-01T05:12:16;4.15;;;2.97;;
20207;SDS011;10263;48.716;8.760;2023-08-01T05:14:43;4.25;;;2.70;;
20207;SDS011;10263;48.716;8.760;2023-08-01T05:17:09;5.95;;;2.47;;
20207;SDS011;10263;48.716;8.760;2023-08-01T05:19:36;4.03;;;3.00;;
20207;SDS011;10263;48.716;8.760;2023-08-01T05:22:04;7.38;;;2.83;;
20207;SDS011;10263;48.716;8.760;2023-08-01T05:24:31;3.60;;;3.03;;
20207;SDS011;10263;48.716;8.760;2023-08-01T05:26:58;5.18;;;3.35;;
20207;SDS011;10263;48.716;8.760;2023-08-01T05:29:25;3.00;;;2.70;;
20207;SDS011;10263;48.716;8.760;2023-08-01T05:31:52;3.75;;;2.67;;
20207;SDS011;10263;48.716;8.760;2023-08-01T05:34:18;3.40;;;2.63;;
20207;SDS011;10263;48.716;8.760;2023-08-01T05:36:45;3.85;;;3.28;;
20207;SDS011;10263;48.716;8.760;2023-08-01T05:39:13;3.67;;;3.28;;
20207;SDS011;10263;48.716;8.760;2023-08-01T05:41:40;6.68;;;3.58;;
20207;SDS011;10263;48.716;8.760;2023-08-01T05:44:07;4.30;;;2.75;;
20207;SDS011;10263;48.716;8.760;2023-08-01T05:46:34;4.15;;;3.10;;
20207;SDS011;10263;48.716;8.760;2023-08-01T05:49:01;4.35;;;3.30;;
20207;SDS011;10263;48.716;8.760;2023-08-01T05:51:28;5.50;;;3.00;;
20207;SDS011;10263;48.716;8.760;2023-08-01T05:53:55;5.13;;;3.08;;
20207;SDS011;10263;48.716;8.760;2023-08-01T05:56:23;5.32;;;3.08;;
20207;SDS011;10263;48.716;8.760;2023-08-01T05:58:50;4.05;;;2.83;;
20207;SDS011;10263;48.716;8.760;2023-08-01T06:01:16;4.95;;;3.00;;
20207;SDS011;10263;48.716;8.760;2023-08-01T06:03:44;2.95;;;2.58;;
20207;SDS011;10263;48.716;8.760;2023-08-01T06:06:11;5.18;;;3.00;;
20207;SDS011;10263;48.716;8.760;2023-08-01T06:08:38;3.15;;;2.72;;
20207;SDS011;10263;48.716;8.760;2023-08-01T06:11:05;3.63;;;3.25;;
20207;SDS011;10263;48.716;8.760;2023-08-01T06:13:33;3.53;;;2.65;;
20207;SDS011;10263;48.716;8.760;2023-08-01T06:16:00;3.60;;;3.05;;
20207;SDS011;10263;48.716;8.760;2023-08-01T06:18:26;3.90;;;2.92;;
20207;SDS011;10263;48.716;8.760;2023-08-01T06:20:53;5.13;;;3.85;;
20207;SDS011;10263;48.716;8.760;2023-08-01T06:23:20;4.30;;;3.30;;
20207;SDS011;10263;48.716;8.760;2023-08-01T06:25:47;4.38;;;3.95;;
20207;SDS011;10263;48.716;8.760;2023-08-01T06:28:13;4.82;;;3.20;;
20207;SDS011;10263;48.716;8.760;2023-08-01T06:30:42;3.65;;;3.33;;
20207;SDS011;10263;48.716;8.760;2023-08-01T06:33:08;4.97;;;3.67;;
20207;SDS011;10263;48.716;8.760;2023-08-01T06:35:35;7.05;;;4.00;;
20207;SDS011;10263;48.716;8.760;2023-08-01T06:38:02;6.70;;;4.15;;
20207;SDS011;10263;48.716;8.760;2023-08-01T06:40:28;4.80;;;3.45;;
20207;SDS011;10263;48.716;8.760;2023-08-01T06:42:55;4.95;;;3.85;;
20207;SDS011;10263;48.716;8.760;2023-08-01T06:45:23;4.95;;;3.50;;
20207;SDS011;10263;48.716;8.760;2023-08-01T06:47:51;5.25;;;4.10;;
20207;SDS011;10263;48.716;8.760;2023-08-01T06:50:18;4.95;;;3.72;;
20207;SDS011;10263;48.716;8.760;2023-08-01T06:52:47;4.68;;;3.85;;
20207;SDS011;10263;48.716;8.760;2023-08-01T06:55:14;4.95;;;3.92;;
20207;SDS011;10263;48.716;8.760;2023-08-01T06:57:41;5.80;;;4.47;;
20207;SDS011;10263;48.716;8.760;2023-08-01T07:00:08;4.43;;;3.90;;
20207;SDS011;10263;48.716;8.760;2023-08-01T07:02:36;5.63;;;3.75;;
20207;SDS011;10263;48.716;8.760;2023-08-01T07:05:04;5.07;;;3.92;;
20207;SDS011;10263;48.716;8.760;2023-08-01T07:07:32;5.03;;;3.58;;
20207;SDS011;10263;48.716;8.760;2023-08-01T07:09:58;5.18;;;3.70;;
20207;SDS011;10263;48.716;8.760;2023-08-01T07:12:25;5.80;;;4.00;;
20207;SDS011;10263;48.716;8.760;2023-08-01T07:14:52;4.55;;;3.90;;
20207;SDS011;10263;48.716;8.760;2023-08-01T07:17:19;5.10;;;3.80;;
20207;SDS011;10263;48.716;8.760;2023-08-01T07:19:45;5.80;;;3.60;;
20207;SDS011;10263;48.716;8.760;2023-08-01T07:22:14;5.63;;;4.15;;
20207;SDS011;10263;48.716;8.760;2023-08-01T07:24:40;5.45;;;3.75;;
20207;SDS011;10263;48.716;8.760;2023-08-01T07:27:07;5.10;;;3.25;;
20207;SDS011;10263;48.716;8.760;2023-08-01T07:29:34;4.53;;;3.55;;
20207;SDS011;10263;48.716;8.760;2023-08-01T07:32:01;4.32;;;3.53;;
20207;SDS011;10263;48.716;8.760;2023-08-01T07:34:27;4.35;;;3.45;;
20207;SDS011;10263;48.716;8.760;2023-08-01T07:36:54;4.07;;;3.20;;
20207;SDS011;10263;48.716;8.760;2023-08-01T07:39:22;3.90;;;3.42;;
20207;SDS011;10263;48.716;8.760;2023-08-01T07:41:49;5.35;;;3.88;;
20207;SDS011;10263;48.716;8.760;2023-08-01T07:44:16;4.07;;;3.33;;
20207;SDS011;10263;48.716;8.760;2023-08-01T07:46:43;5.30;;;3.30;;
20207;SDS011;10263;48.716;8.760;2023-08-01T07:49:09;5.03;;;3.08;;
20207;SDS011;10263;48.716;8.760;2023-08-01T07:51:36;3.58;;;3.22;;
20207;SDS011;10263;48.716;8.760;2023-08-01T07:54:03;5.88;;;3.20;;
20207;SDS011;10263;48.716;8.760;2023-08-01T07:56:31;3.90;;;2.20;;
20207;SDS011;10263;48.716;8.760;2023-08-01T07:58:58;3.67;;;3.35;;
20207;SDS011;10263;48.716;8.760;2023-08-01T08:01:25;3.53;;;2.90;;
20207;SDS011;10263;48.716;8.760;2023-08-01T08:03:51;2.95;;;2.47;;
20207;SDS011;10263;48.716;8.760;2023-08-01T08:06:18;3.15;;;2.85;;
20207;SDS011;10263;48.716;8.760;2023-08-01T08:08:46;3.03;;;2.72;;
20207;SDS011;10263;48.716;8.760;2023-08-01T08:11:13;2.33;;;2.05;;
20207;SDS011;10263;48.716;8.760;2023-08-01T08:13:42;2.47;;;2.15;;
20207;SDS011;10263;48.716;8.760;2023-08-01T08:16:09;2.20;;;2.00;;
20207;SDS011;10263;48.716;8.760;2023-08-01T08:18:36;3.08;;;2.50;;
20207;SDS011;10263;48.716;8.760;2023-08-01T08:21:03;2.42;;;2.22;;
20207;SDS011;10263;48.716;8.760;2023-08-01T08:23:29;3.17;;;2.55;;
20207;SDS011;10263;48.716;8.760;2023-08-01T08:25:56;2.22;;;1.73;;
20207;SDS011;10263;48.716;8.760;2023-08-01T08:28:29;2.20;;;2.00;;
20207;SDS011;10263;48.716;8.760;2023-08-01T08:30:59;3.70;;;1.88;;
20207;SDS011;10263;48.716;8.760;2023-08-01T08:33:26;3.97;;;1.98;;
20207;SDS011;10263;48.716;8.760;2023-08-01T08:35:54;2.28;;;1.98;;
20207;SDS011;10263;48.716;8.760;2023-08-01T08:38:20;2.58;;;1.80;;
20207;SDS011;10263;48.716;8.760;2023-08-01T08:40:51;2.17;;;1.50;;
20207;SDS011;10263;48.716;8.760;2023-08-01T08:43:23;1.55;;;1.40;;
20207;SDS011;10263;48.716;8.760;2023-08-01T08:45:49;1.38;;;1.27;;
20207;SDS011;10263;48.716;8.760;2023-08-01T08:48:20;2.17;;;1.70;;
20207;SDS011;10263;48.716;8.760;2023-08-01T08:50:47;1.63;;;1.52;;
20207;SDS011;10263;48.716;8.760;2023-08-01T08:53:16;1.27;;;1.10;;
20207;SDS011;10263;48.716;8.760;2023-08-01T08:55:43;1.00;;;0.90;;
20207;SDS011;10263;48.716;8.760;2023-08-01T08:58:10;1.40;;;0.90;;
20207;SDS011;10263;48.716;8.760;2023-08-01T09:00:37;3.47;;;1.70;;
20207;SDS011;10263;48.716;8.760;2023-08-01T09:03:04;2.13;;;1.30;;
20207;SDS011;10263;48.716;8.760;2023-08-01T09:05:34;1.33;;;1.10;;
20207;SDS011;10263;48.716;8.760;2023-08-01T09:08:07;1.83;;;1.08;;
20207;SDS011;10263;48.716;8.760;2023-08-01T09:10:41;0.80;;;0.80;;
20207;SDS011;10263;48.716;8.760;2023-08-01T09:13:08;2.05;;;1.05;;
20207;SDS011;10263;48.716;8.760;2023-08-01T09:15:35;1.38;;;0.90;;
20207;SDS011;10263;48.716;8.760;2023-08-01T09:18:05;1.83;;;1.20;;
20207;SDS011;10263;48.716;8.760;2023-08-01T09:20:40;2.55;;;0.90;;
20207;SDS011;10263;48.716;8.760;2023-08-01T09:23:08;0.73;;;0.70;;
20207;SDS011;10263;48.716;8.760;2023-08-01T09:25:36;0.65;;;0.60;;
20207;SDS011;10263;48.716;8.760;2023-08-01T09:28:03;0.65;;;0.63;;
20207;SDS011;10263;48.716;8.760;2023-08-01T09:30:45;1.48;;;0.68;;
20207;SDS011;10263;48.716;8.760;2023-08-01T09:33:12;0.82;;;0.68;;
20207;SDS011;10263;48.716;8.760;2023-08-01T09:35:41;0.50;;;0.50;;
20207;SDS011;10263;48.716;8.760;2023-08-01T09:38:09;1.52;;;0.55;;
20207;SDS011;10263;48.716;8.760;2023-08-01T09:40:37;0.82;;;0.50;;
20207;SDS011;10263;48.716;8.760;2023-08-01T09:43:04;1.52;;;0.60;;
20207;SDS011;10263;48.716;8.760;2023-08-01T09:45:31;0.50;;;0.50;;
20207;SDS011;10263;48.716;8.760;2023-08-01T09:47:59;0.50;;;0.50;;
20207;SDS011;10263;48.716;8.760;2023-08-01T09:50:26;0.80;;;0.50;;
20207;SDS011;10263;48.716;8.760;2023-08-01T09:52:54;0.95;;;0.60;;
20207;SDS011;10263;48.716;8.760;2023-08-01T09:55:25;0.50;;;0.45;;
20207;SDS011;10263;48.716;8.760;2023-08-01T09:57:53;0.40;;;0.40;;
20207;SDS011;10263;48.716;8.760;2023-08-01T10:00:23;0.57;;;0.55;;
20207;SDS011;10263;48.716;8.760;2023-08-01T10:02:52;1.17;;;0.50;;
20207;SDS011;10263;48.716;8.760;2023-08-01T10:05:19;2.17;;;0.90;;
20207;SDS011;10263;48.716;8.760;2023-08-01T10:07:47;1.40;;;1.20;;
20207;SDS011;10263;48.716;8.760;2023-08-01T10:10:18;0.52;;;0.52;;
20207;SDS011;10263;48.716;8.760;2023-08-01T10:12:46;0.80;;;0.60;;
20207;SDS011;10263;48.716;8.760;2023-08-01T10:15:14;0.98;;;0.82;;
20207;SDS011;10263;48.716;8.760;2023-08-01T10:17:41;1.05;;;0.85;;
20207;SDS011;10263;48.716;8.760;2023-08-01T10:20:09;0.77;;;0.70;;
20207;SDS011;10263;48.716;8.760;2023-08-01T10:22:38;0.65;;;0.60;;
20207;SDS011;10263;48.716;8.760;2023-08-01T10:25:07;0.50;;;0.50;;
20207;SDS011;10263;48.716;8.760;2023-08-01T10:27:36;0.88;;;0.60;;
20207;SDS011;10263;48.716;8.760;2023-08-01T10:30:04;0.75;;;0.68;;
20207;SDS011;10263;48.716;8.760;2023-08-01T10:32:32;0.52;;;0.52;;
20207;SDS011;10263;48.716;8.760;2023-08-01T10:35:00;2.50;;;0.77;;
20207;SDS011;10263;48.716;8.760;2023-08-01T10:37:27;0.55;;;0.47;;
20207;SDS011;10263;48.716;8.760;2023-08-01T10:40:05;0.60;;;0.60;;
20207;SDS011;10263;48.716;8.760;2023-08-01T10:42:38;1.60;;;0.70;;
20207;SDS011;10263;48.716;8.760;2023-08-01T10:45:06;0.88;;;0.88;;
20207;SDS011;10263;48.716;8.760;2023-08-01T10:47:33;2.70;;;1.02;;
20207;SDS011;10263;48.716;8.760;2023-08-01T10:50:00;0.85;;;0.60;;
20207;SDS011;10263;48.716;8.760;2023-08-01T10:52:28;1.10;;;0.70;;
20207;SDS011;10263;48.716;8.760;2023-08-01T10:54:55;1.25;;;0.90;;
20207;SDS011;10263;48.716;8.760;2023-08-01T10:57:24;1.42;;;0.77;;
20207;SDS011;10263;48.716;8.760;2023-08-01T10:59:52;1.48;;;0.80;;
20207;SDS011;10263;48.716;8.760;2023-08-01T11:02:20;1.45;;;0.75;;
20207;SDS011;10263;48.716;8.760;2023-08-01T11:04:55;0.98;;;0.80;;
20207;SDS011;10263;48.716;8.760;2023-08-01T11:07:22;1.08;;;0.98;;
20207;SDS011;10263;48.716;8.760;2023-08-01T11:09:49;1.00;;;0.82;;
20207;SDS011;10263;48.716;8.760;2023-08-01T11:12:29;0.75;;;0.68;;
20207;SDS011;10263;48.716;8.760;2023-08-01T11:15:00;1.13;;;1.02;;
20207;SDS011;10263;48.716;8.760;2023-08-01T11:17:27;1.30;;;0.90;;
20207;SDS011;10263;48.716;8.760;2023-08-01T11:20:00;0.85;;;0.80;;
20207;SDS011;10263;48.716;8.760;2023-08-01T11:22:28;1.17;;;0.98;;
20207;SDS011;10263;48.716;8.760;2023-08-01T11:24:55;0.82;;;0.63;;
20207;SDS011;10263;48.716;8.760;2023-08-01T11:27:21;1.27;;;0.98;;
20207;SDS011;10263;48.716;8.760;2023-08-01T11:29:49;0.70;;;0.70;;
20207;SDS011;10263;48.716;8.760;2023-08-01T11:32:17;1.10;;;0.93;;
20207;SDS011;10263;48.716;8.760;2023-08-01T11:34:45;1.15;;;1.00;;
20207;SDS011;10263;48.716;8.760;2023-08-01T11:37:12;1.00;;;0.70;;
20207;SDS011;10263;48.716;8.760;2023-08-01T11:39:40;1.30;;;0.90;;
20207;SDS011;10263;48.716;8.760;2023-08-01T11:42:07;1.35;;;0.90;;
20207;SDS011;10263;48.716;8.760;2023-08-01T11:44:39;2.38;;;1.20;;
20207;SDS011;10263;48.716;8.760;2023-08-01T11:47:10;0.95;;;0.85;;
20207;SDS011;10263;48.716;8.760;2023-08-01T11:49:39;1.40;;;1.00;;
20207;SDS011;10263;48.716;8.760;2023-08-01T11:52:06;0.70;;;0.70;;
20207;SDS011;10263;48.716;8.760;2023-08-01T11:54:43;1.65;;;1.05;;
20207;SDS011;10263;48.716;8.760;2023-08-01T11:57:10;2.70;;;0.90;;
20207;SDS011;10263;48.716;8.760;2023-08-01T11:59:45;1.02;;;0.90;;
20207;SDS011;10263;48.716;8.760;2023-08-01T12:02:20;1.48;;;0.98;;
20207;SDS011;10263;48.716;8.760;2023-08-01T12:04:48;2.13;;;0.95;;
20207;SDS011;10263;48.716;8.760;2023-08-01T12:07:15;1.77;;;1.10;;
20207;SDS011;10263;48.716;8.760;2023-08-01T12:09:43;1.30;;;0.90;;
20207;SDS011;10263;48.716;8.760;2023-08-01T12:12:09;3.45;;;1.45;;
20207;SDS011;10263;48.716;8.760;2023-08-01T12:14:39;2.63;;;1.00;;
20207;SDS011;10263;48.716;8.760;2023-08-01T12:17:06;1.58;;;1.05;;
20207;SDS011;10263;48.716;8.760;2023-08-01T12:19:33;1.10;;;1.00;;
20207;SDS011;10263;48.716;8.760;2023-08-01T12:22:01;1.38;;;1.02;;
20207;SDS011;10263;48.716;8.760;2023-08-01T12:24:28;1.23;;;0.80;;
20207;SDS011;10263;48.716;8.760;2023-08-01T12:26:55;1.85;;;1.00;;
20207;SDS011;10263;48.716;8.760;2023-08-01T12:29:23;1.30;;;1.10;;
20207;SDS011;10263;48.716;8.760;2023-08-01T12:31:50;1.85;;;1.15;;
20207;SDS011;10263;48.716;8.760;2023-08-01T12:34:16;1.02;;;1.00;;
20207;SDS011;10263;48.716;8.760;2023-08-01T12:36:43;1.45;;;1.20;;
20207;SDS011;10263;48.716;8.760;2023-08-01T12:39:12;1.45;;;1.00;;
20207;SDS011;10263;48.716;8.760;2023-08-01T12:41:38;1.67;;;1.20;;
20207;SDS011;10263;48.716;8.760;2023-08-01T12:44:05;1.58;;;1.15;;
20207;SDS011;10263;48.716;8.760;2023-08-01T12:46:32;2.33;;;1.92;;
20207;SDS011;10263;48.716;8.760;2023-08-01T12:51:42;0.93;;;0.90;;
20207;SDS011;10263;48.716;8.760;2023-08-01T12:54:09;1.75;;;0.95;;
20207;SDS011;10263;48.716;8.760;2023-08-01T12:56:37;1.60;;;1.02;;
20207;SDS011;10263;48.716;8.760;2023-08-01T12:59:04;2.78;;;1.20;;
20207;SDS011;10263;48.716;8.760;2023-08-01T13:01:30;1.10;;;1.00;;
20207;SDS011;10263;48.716;8.760;2023-08-01T13:03:57;3.05;;;1.10;;
20207;SDS011;10263;48.716;8.760;2023-08-01T13:06:24;1.10;;;1.00;;
20207;SDS011;10263;48.716;8.760;2023-08-01T13:08:51;1.13;;;1.02;;
20207;SDS011;10263;48.716;8.760;2023-08-01T13:11:18;2.47;;;0.90;;
20207;SDS011;10263;48.716;8.760;2023-08-01T13:13:46;1.30;;;1.20;;
20207;SDS011;10263;48.716;8.760;2023-08-01T13:16:13;1.02;;;0.90;;
20207;SDS011;10263;48.716;8.760;2023-08-01T13:18:40;1.73;;;1.08;;
20207;SDS011;10263;48.716;8.760;2023-08-01T13:21:09;1.65;;;1.10;;
20207;SDS011;10263;48.716;8.760;2023-08-01T13:23:36;2.72;;;1.17;;
20207;SDS011;10263;48.716;8.760;2023-08-01T13:26:03;1.63;;;1.10;;
20207;SDS011;10263;48.716;8.760;2023-08-01T13:28:30;1.13;;;1.02;;
20207;SDS011;10263;48.716;8.760;2023-08-01T13:30:58;1.13;;;1.00;;
20207;SDS011;10263;48.716;8.760;2023-08-01T13:33:25;2.08;;;1.05;;
20207;SDS011;10263;48.716;8.760;2023-08-01T13:35:52;1.67;;;0.90;;
20207;SDS011;10263;48.716;8.760;2023-08-01T13:38:19;1.60;;;1.30;;
20207;SDS011;10263;48.716;8.760;2023-08-01T13:40:45;1.17;;;0.80;;
20207;SDS011;10263;48.716;8.760;2023-08-01T13:43:12;1.30;;;1.20;;
20207;SDS011;10263;48.716;8.760;2023-08-01T13:45:39;1.08;;;0.98;;
20207;SDS011;10263;48.716;8.760;2023-08-01T13:48:07;2.53;;;1.20;;
20207;SDS011;10263;48.716;8.760;2023-08-01T13:50:34;1.55;;;1.10;;
20207;SDS011;10263;48.716;8.760;2023-08-01T13:53:01;1.35;;;1.10;;
20207;SDS011;10263;48.716;8.760;2023-08-01T13:55:28;2.10;;;1.08;;
20207;SDS011;10263;48.716;8.760;2023-08-01T13:57:55;0.98;;;0.90;;
20207;SDS011;10263;48.716;8.760;2023-08-01T14:00:22;1.40;;;1.08;;
20207;SDS011;10263;48.716;8.760;2023-08-01T14:02:49;1.08;;;0.90;;
20207;SDS011;10263;48.716;8.760;2023-08-01T14:05:18;1.13;;;1.00;;
20207;SDS011;10263;48.716;8.760;2023-08-01T14:07:45;1.10;;;1.00;;
20207;SDS011;10263;48.716;8.760;2023-08-01T14:10:12;0.88;;;0.88;;
20207;SDS011;10263;48.716;8.760;2023-08-01T14:12:39;0.73;;;0.73;;
20207;SDS011;10263;48.716;8.760;2023-08-01T14:15:06;1.33;;;1.10;;
20207;SDS011;10263;48.716;8.760;2023-08-01T14:17:34;2.30;;;1.05;;
20207;SDS011;10263;48.716;8.760;2023-08-01T14:20:01;1.20;;;1.10;;
20207;SDS011;10263;48.716;8.760;2023-08-01T14:22:31;1.85;;;0.82;;
20207;SDS011;10263;48.716;8.760;2023-08-01T14:24:58;2.85;;;1.20;;
20207;SDS011;10263;48.716;8.760;2023-08-01T14:27:25;0.80;;;0.80;;
20207;SDS011;10263;48.716;8.760;2023-08-01T14:29:51;1.58;;;1.10;;
20207;SDS011;10263;48.716;8.760;2023-08-01T14:32:18;1.15;;;0.80;;
20207;SDS011;10263;48.716;8.760;2023-08-01T14:34:45;1.70;;;1.20;;
20207;SDS011;10263;48.716;8.760;2023-08-01T14:37:12;1.45;;;0.90;;
20207;SDS011;10263;48.716;8.760;2023-08-01T14:39:40;1.90;;;1.30;;
20207;SDS011;10263;48.716;8.760;2023-08-01T14:42:07;1.67;;;1.02;;
20207;SDS011;10263;48.716;8.760;2023-08-01T14:44:34;1.80;;;1.23;;
20207;SDS011;10263;48.716;8.760;2023-08-01T14:47:01;2.40;;;1.00;;
20207;SDS011;10263;48.716;8.760;2023-08-01T14:49:27;2.90;;;1.25;;
20207;SDS011;10263;48.716;8.760;2023-08-01T14:51:54;1.63;;;1.00;;